Time;durP1;ratioP1;P1;durP2;ratioP2;P2;SDS_P1;SDS_P2;PMS_P1;PMS_P2;Temp;Humidity;BMP_temperature;BMP_pressure;BME280_temperature;BME280_humidity;BME280_pressure;Samples;Min_cycle;Max_cycle;Signal;HPM_P1;HPM_P2
2022/05/15 00:01:11;;;;;;;19.05;4.85;;;;;;;7.58;89.42;102186.84;2071381;28;20042;-66
2022/05/15 00:02:13;;;;;;;18.67;4.80;;;;;;;7.52;89.33;102180.53;2071686;28;20046;-66
2022/05/15 00:03:22;;;;;;;20.55;4.97;;;;;;;7.47;89.34;102182.28;2070893;28;46070;-66
2022/05/15 00:04:23;;;;;;;19.00;4.32;;;;;;;7.41;89.66;102178.69;2070802;28;44228;-66
2022/05/15 00:05:25;;;;;;;20.55;5.15;;;;;;;7.39;89.73;102184.84;2070753;28;44206;-67
2022/05/15 00:06:27;;;;;;;24.00;4.70;;;;;;;7.37;90.08;102184.84;2070646;28;43062;-65
2022/05/15 00:07:31;;;;;;;20.95;4.95;;;;;;;7.35;90.06;102180.38;2071530;28;20093;-65
2022/05/15 00:08:36;;;;;;;25.67;5.43;;;;;;;7.36;90.32;102190.19;2070536;28;46487;-66
2022/05/15 00:09:38;;;;;;;28.65;5.60;;;;;;;7.39;91.03;102183.09;2070423;28;43345;-67
2022/05/15 00:10:41;;;;;;;28.50;5.72;;;;;;;7.38;90.91;102183.09;2069946;28;42917;-65
2022/05/15 00:11:43;;;;;;;20.17;4.50;;;;;;;7.38;90.96;102180.44;2047516;28;20043;-69
2022/05/15 00:12:49;;;;;;;28.48;6.18;;;;;;;7.38;91.35;102185.75;2055584;28;45440;-64
2022/05/15 00:13:50;;;;;;;22.88;5.15;;;;;;;7.38;91.56;102185.75;2070840;28;44975;-66
2022/05/15 00:14:52;;;;;;;24.05;5.90;;;;;;;7.39;91.99;102187.53;2070570;28;33279;-65
2022/05/15 00:15:55;;;;;;;24.15;5.35;;;;;;;7.39;91.32;102187.53;2069789;28;45200;-66
2022/05/15 00:16:57;;;;;;;20.92;5.10;;;;;;;7.33;91.35;102179.47;2062502;28;46050;-65
2022/05/15 00:18:02;;;;;;;23.48;5.18;;;;;;;7.32;91.46;102188.34;2063372;28;20039;-66
2022/05/15 00:19:04;;;;;;;21.08;5.70;;;;;;;7.31;91.43;102191.91;2063845;28;46278;-64
2022/05/15 00:20:06;;;;;;;21.77;5.18;;;;;;;7.30;91.67;102187.44;2055870;28;20125;-65
2022/05/15 00:21:09;;;;;;;29.58;6.32;;;;;;;7.30;91.83;102187.44;2055298;28;20047;-64
2022/05/15 00:22:11;;;;;;;18.88;5.20;;;;;;;7.29;92.40;102185.66;2062403;28;45935;-65
2022/05/15 00:23:14;;;;;;;21.92;5.85;;;;;;;7.28;91.87;102189.19;2062662;28;45583;-65
2022/05/15 00:24:17;;;;;;;24.98;6.05;;;;;;;7.29;92.01;102191.00;2054988;28;20043;-64
2022/05/15 00:25:18;;;;;;;23.45;5.53;;;;;;;7.26;92.10;102179.41;2054498;28;44759;-64
2022/05/15 00:26:20;;;;;;;24.35;5.50;;;;;;;7.24;92.08;102185.59;2062991;28;42819;-65
2022/05/15 00:27:24;;;;;;;22.42;6.00;;;;;;;7.23;92.06;102186.47;2063628;28;20038;-64
2022/05/15 00:28:26;;;;;;;18.75;5.07;;;;;;;7.22;92.16;102190.91;2063555;28;20043;-65
2022/05/15 00:29:28;;;;;;;22.05;5.75;;;;;;;7.21;92.05;102182.91;2054570;28;44605;-65
2022/05/15 00:30:31;;;;;;;21.48;5.15;;;;;;;7.20;92.13;102184.66;2055354;28;45717;-65
2022/05/15 00:31:33;;;;;;;21.42;5.72;;;;;;;7.17;92.10;102189.97;2055464;28;21099;-65
2022/05/15 00:32:35;;;;;;;24.02;6.15;;;;;;;7.16;92.22;102180.19;2056286;28;20047;-65
2022/05/15 00:33:38;;;;;;;20.33;5.93;;;;;;;7.16;92.29;102188.19;2055266;28;43421;-64
2022/05/15 00:34:40;;;;;;;16.38;4.32;;;;;;;7.14;92.26;102187.28;2056374;28;20174;-65
2022/05/15 00:35:42;;;;;;;24.45;5.40;;;;;;;7.10;92.13;102185.44;2063555;28;44632;-65
2022/05/15 00:36:44;;;;;;;20.95;5.03;;;;;;;7.06;91.91;102189.84;2054980;28;43147;-64
2022/05/15 00:37:45;;;;;;;22.65;5.78;;;;;;;7.06;92.26;102192.50;2055822;28;45349;-65
2022/05/15 00:38:47;;;;;;;21.48;5.10;;;;;;;7.05;92.49;102188.06;2055211;28;38936;-65
2022/05/15 00:39:49;;;;;;;24.05;5.25;;;;;;;7.03;92.50;102183.56;2055624;28;44125;-65
2022/05/15 00:40:52;;;;;;;21.70;6.10;;;;;;;7.02;92.57;102184.47;2063822;28;46176;-65
2022/05/15 00:41:54;;;;;;;22.77;5.63;;;;;;;7.01;92.48;102190.66;2055489;28;44866;-65
2022/05/15 00:42:56;;;;;;;25.40;5.78;;;;;;;7.00;92.30;102194.19;2048260;28;20040;-65
2022/05/15 00:43:59;;;;;;;24.48;5.75;;;;;;;6.99;92.88;102184.44;2054946;28;44702;-65
2022/05/15 00:45:05;;;;;;;22.08;6.55;;;;;;;6.97;92.54;102188.84;2055244;28;44096;-64
2022/05/15 00:46:32;;;;;;;23.75;5.93;;;;;;;6.95;92.78;102178.16;2057959;28;44407;-65
2022/05/15 00:47:35;;;;;;;19.92;4.93;;;;;;;6.94;92.86;102184.34;2072419;28;20055;-65
2022/05/15 00:48:38;;;;;;;17.60;5.40;;;;;;;6.93;92.47;102193.25;2068853;28;20074;-65
2022/05/15 00:49:41;;;;;;;17.92;5.55;;;;;;;6.91;93.04;102189.66;2066521;28;20165;-65
2022/05/15 00:50:45;;;;;;;21.35;5.50;;;;;;;6.91;92.96;102188.75;2072986;28;20027;-65
2022/05/15 00:51:56;;;;;;;19.70;5.10;;;;;;;6.89;93.51;102188.72;2070780;28;43833;-64
2022/05/15 00:53:07;;;;;;;19.33;5.00;;;;;;;6.87;93.05;102186.06;2070446;28;20046;-65
2022/05/15 00:54:30;;;;;;;28.90;5.63;;;;;;;6.87;93.26;102194.06;2061636;28;20130;-65
2022/05/15 00:55:48;;;;;;;23.20;5.82;;;;;;;6.86;93.37;102181.59;2062028;28;43166;-65
2022/05/15 00:57:04;;;;;;;26.40;6.32;;;;;;;6.92;93.89;102194.09;2064196;28;20125;-65
2022/05/15 00:58:30;;;;;;;27.13;6.82;;;;;;;6.96;94.32;102192.38;2057570;28;31785;-66
2022/05/15 00:59:40;;;;;;;25.65;5.43;;;;;;;6.91;94.51;102184.34;2052801;28;20043;-65
2022/05/15 01:00:42;;;;;;;22.98;5.53;;;;;;;6.90;93.59;102186.97;2052563;28;27590;-65
2022/05/15 01:01:44;;;;;;;26.98;6.50;;;;;;;6.91;94.11;102191.41;2056414;28;39387;-65
2022/05/15 01:03:05;;;;;;;23.13;5.88;;;;;;;6.88;93.76;102185.19;2056466;28;20088;-66
2022/05/15 01:04:07;;;;;;;;;;;;;;;6.88;93.93;102187.84;2058538;28;46588;-65
2022/05/15 01:05:12;;;;;;;20.75;5.70;;;;;;;6.87;93.75;102188.75;2066570;28;20035;-64
2022/05/15 01:06:15;;;;;;;20.55;5.88;;;;;;;6.88;94.26;102185.19;2063614;28;20039;-65
2022/05/15 01:07:16;;;;;;;18.35;5.55;;;;;;;6.86;93.68;102189.59;2056703;28;20170;-64
2022/05/15 01:08:18;;;;;;;21.77;5.80;;;;;;;6.83;93.52;102184.22;2055689;28;32443;-64
2022/05/15 01:09:22;;;;;;;26.17;6.35;;;;;;;6.82;93.51;102185.13;2056751;28;20048;-64
2022/05/15 01:10:24;;;;;;;24.73;6.07;;;;;;;6.81;94.21;102185.97;2063652;28;43372;-64
2022/05/15 01:11:26;;;;;;;20.63;5.80;;;;;;;6.82;94.17;102182.47;2063839;28;20149;-65
2022/05/15 01:12:28;;;;;;;22.35;5.90;;;;;;;6.79;93.64;102179.75;2063864;28;24885;-64
2022/05/15 01:13:35;;;;;;;22.08;5.80;;;;;;;6.75;93.75;102183.25;2072739;28;20094;-64
2022/05/15 01:14:41;;;;;;;26.98;6.35;;;;;;;6.73;93.56;102179.69;2071524;28;20045;-65
2022/05/15 01:15:45;;;;;;;28.30;6.25;;;;;;;6.74;93.72;102178.78;2072066;28;20126;-65
2022/05/15 01:16:50;;;;;;;19.38;5.65;;;;;;;6.70;93.50;102176.97;2071051;28;20121;-65
2022/05/15 01:17:53;;;;;;;21.85;6.30;;;;;;;6.66;93.45;102178.69;2071068;28;20038;-64
2022/05/15 01:18:57;;;;;;;20.45;6.10;;;;;;;6.66;94.10;102177.81;2064028;28;20106;-65
2022/05/15 01:20:14;;;;;;;24.38;6.80;;;;;;;6.62;93.91;102182.19;2064167;28;20177;-64
2022/05/15 01:21:40;;;;;;;22.73;6.10;;;;;;;6.62;93.77;102176.88;2067234;28;20986;-65
2022/05/15 01:22:42;;;;;;;26.90;6.97;;;;;;;6.58;93.74;102177.69;2072437;28;20027;-65
2022/05/15 01:23:44;;;;;;;23.35;5.97;;;;;;;6.58;94.39;102179.47;2064182;28;20043;-65
2022/05/15 01:24:46;;;;;;;22.70;6.00;;;;;;;6.55;93.88;102176.75;2055978;28;20094;-64
2022/05/15 01:25:49;;;;;;;23.38;6.45;;;;;;;6.50;93.26;102169.63;2062961;28;45661;-66
2022/05/15 01:26:53;;;;;;;23.65;5.88;;;;;;;6.49;93.61;102180.22;2063956;28;20165;-64
2022/05/15 01:28:13;;;;;;;21.23;6.25;;;;;;;6.45;93.63;102173.09;2063922;28;21041;-66
2022/05/15 01:29:16;;;;;;;22.83;5.97;;;;;;;6.45;94.55;102183.72;2050649;28;20043;-65
2022/05/15 01:30:18;;;;;;;21.38;5.13;;;;;;;6.44;94.52;102185.50;2057273;28;20091;-64
2022/05/15 01:31:21;;;;;;;20.17;5.50;;;;;;;6.40;94.86;102183.66;2063444;28;21015;-64
2022/05/15 01:32:23;;;;;;;17.77;5.32;;;;;;;6.40;94.27;102181.00;2063935;28;20889;-65
2022/05/15 01:33:25;;;;;;;21.83;5.45;;;;;;;6.36;93.83;102180.94;2072525;28;20105;-65
2022/05/15 01:34:27;;;;;;;28.02;6.00;;;;;;;6.28;93.74;102178.16;2063475;28;20813;-66
2022/05/15 01:35:30;;;;;;;22.85;6.15;;;;;;;6.24;93.85;102177.19;2063810;28;35712;-64
2022/05/15 01:36:36;;;;;;;23.00;6.25;;;;;;;6.24;93.85;102184.31;2072698;28;20069;-64
2022/05/15 01:37:39;;;;;;;27.83;6.82;;;;;;;6.24;93.77;102186.97;2071558;28;20301;-64
2022/05/15 01:38:42;;;;;;;24.25;6.57;;;;;;;6.24;93.90;102189.63;2072029;28;20089;-65
2022/05/15 01:39:43;;;;;;;31.20;7.05;;;;;;;6.25;94.07;102188.75;2071432;28;20808;-64
2022/05/15 01:40:49;;;;;;;20.48;6.72;;;;;;;6.26;95.24;102187.88;2062564;28;25887;-65
2022/05/15 01:41:51;;;;;;;27.38;6.93;;;;;;;6.27;94.42;102187.91;2063486;28;20063;-65
2022/05/15 01:42:54;;;;;;;24.08;6.90;;;;;;;6.28;94.54;102180.81;2047394;28;20055;-64
2022/05/15 01:43:55;;;;;;;29.08;8.13;;;;;;;6.28;95.59;102180.81;2056120;28;20035;-65
2022/05/15 01:45:00;;;;;;;24.17;6.45;;;;;;;6.28;94.62;102184.38;2064252;28;20843;-65
2022/05/15 01:46:01;;;;;;;23.05;7.05;;;;;;;6.29;94.53;102182.59;2062746;28;47163;-64
2022/05/15 01:47:04;;;;;;;21.70;7.13;;;;;;;6.28;95.04;102180.81;2063370;28;20090;-64
2022/05/15 01:48:08;;;;;;;30.52;7.82;;;;;;;6.29;94.56;102194.13;2063528;28;20039;-65
2022/05/15 01:49:10;;;;;;;26.25;7.20;;;;;;;6.26;94.43;102182.56;2063869;28;20152;-66
2022/05/15 01:50:13;;;;;;;21.80;6.05;;;;;;;6.25;94.22;102183.44;2056098;28;20047;-65
2022/05/15 01:51:16;;;;;;;17.67;5.97;;;;;;;6.21;94.70;102182.50;2065740;28;20390;-65
2022/05/15 01:52:18;;;;;;;24.13;7.35;;;;;;;6.17;94.71;102185.06;2062874;28;45355;-63
2022/05/15 01:53:20;;;;;;;24.58;6.57;;;;;;;6.15;94.85;102184.16;2062633;28;45333;-65
2022/05/15 01:54:23;;;;;;;21.25;6.60;;;;;;;6.11;94.32;102178.78;2063452;28;20042;-64
2022/05/15 01:55:24;;;;;;;24.85;6.72;;;;;;;6.12;95.08;102185.03;2063237;28;33024;-64
2022/05/15 01:56:26;;;;;;;21.88;6.60;;;;;;;6.14;94.76;102185.03;2063676;28;20050;-65
2022/05/15 01:57:29;;;;;;;28.02;7.13;;;;;;;6.14;95.38;102185.03;2063713;28;20901;-65
2022/05/15 01:58:33;;;;;;;27.00;7.40;;;;;;;6.14;95.60;102185.94;2071795;28;20145;-65
2022/05/15 01:59:36;;;;;;;19.98;6.97;;;;;;;6.15;95.16;102185.06;2063924;28;20038;-65
2022/05/15 02:00:38;;;;;;;21.73;6.13;;;;;;;6.15;95.21;102189.47;2063677;28;20027;-65
2022/05/15 02:01:40;;;;;;;27.33;7.47;;;;;;;6.10;95.14;102190.31;2062543;28;40480;-65
2022/05/15 02:02:42;;;;;;;25.77;7.80;;;;;;;6.09;94.82;102188.50;2063981;28;20082;-65
2022/05/15 02:03:44;;;;;;;24.98;7.20;;;;;;;6.09;95.71;102185.84;2071340;28;20163;-64
2022/05/15 02:04:46;;;;;;;23.48;7.35;;;;;;;6.06;94.33;102191.13;2063560;28;20043;-65
2022/05/15 02:05:47;;;;;;;21.42;5.97;;;;;;;6.04;95.37;102190.19;2071396;28;20102;-65
2022/05/15 02:06:49;;;;;;;18.48;5.60;;;;;;;6.02;94.66;102189.28;2071563;28;20054;-66
2022/05/15 02:07:53;;;;;;;23.23;5.93;;;;;;;6.00;94.61;102190.16;2070796;28;43618;-65
2022/05/15 02:08:56;;;;;;;23.10;7.25;;;;;;;6.04;95.18;102190.19;2055710;28;20823;-65
2022/05/15 02:09:58;;;;;;;18.95;6.65;;;;;;;6.09;95.40;102192.94;2063717;28;20840;-65
2022/05/15 02:11:00;;;;;;;21.88;6.68;;;;;;;6.03;95.52;102193.75;2063765;28;20030;-65
2022/05/15 02:12:06;;;;;;;26.52;7.90;;;;;;;6.00;95.07;102188.38;2063498;28;20043;-65
2022/05/15 02:13:08;;;;;;;29.15;7.22;;;;;;;5.98;94.88;102192.78;2063282;28;20039;-65
2022/05/15 02:14:11;;;;;;;27.15;7.43;;;;;;;5.98;95.76;102194.53;2063686;28;20043;-65
2022/05/15 02:15:14;;;;;;;20.95;5.53;;;;;;;5.98;95.59;102198.09;2063558;28;20043;-65
2022/05/15 02:16:16;;;;;;;22.20;6.63;;;;;;;5.95;95.75;102203.31;2063577;28;20889;-65
2022/05/15 02:17:18;;;;;;;21.65;5.68;;;;;;;5.94;95.20;102198.88;2070461;28;44264;-65
2022/05/15 02:18:20;;;;;;;22.67;6.55;;;;;;;5.88;94.61;102197.00;2071721;28;20043;-65
2022/05/15 02:19:22;;;;;;;26.00;7.63;;;;;;;5.88;95.90;102207.63;2063464;28;20902;-65
2022/05/15 02:20:24;;;;;;;23.42;6.25;;;;;;;5.89;95.04;102197.91;2055398;28;20883;-65
2022/05/15 02:21:26;;;;;;;20.20;5.93;;;;;;;5.83;95.15;102197.78;2057895;28;20109;-65
2022/05/15 02:22:28;;;;;;;27.05;6.15;;;;;;;5.82;95.72;102193.38;2063006;28;44379;-65
2022/05/15 02:23:33;;;;;;;20.73;5.60;;;;;;;5.79;96.02;102198.63;2063603;28;20047;-65
2022/05/15 02:24:36;;;;;;;18.58;5.78;;;;;;;5.77;94.80;102195.94;2064150;28;20083;-65
2022/05/15 02:25:39;;;;;;;22.25;6.28;;;;;;;5.71;95.23;102194.06;2071106;28;24871;-65
2022/05/15 02:26:41;;;;;;;22.85;6.38;;;;;;;5.69;94.88;102193.16;2071341;28;26704;-65
2022/05/15 02:27:43;;;;;;;19.85;6.88;;;;;;;5.67;95.10;102200.19;2071677;28;20117;-65
2022/05/15 02:28:45;;;;;;;30.52;8.43;;;;;;;5.68;95.88;102198.44;2063748;28;20047;-65
2022/05/15 02:29:46;;;;;;;24.60;7.47;;;;;;;5.68;95.31;102193.13;2071464;28;20050;-65
2022/05/15 02:30:49;;;;;;;23.15;7.10;;;;;;;5.68;96.39;102191.34;2070494;28;46162;-65
2022/05/15 02:31:51;;;;;;;23.95;7.70;;;;;;;5.68;96.64;102187.81;2071141;28;20038;-65
2022/05/15 02:32:54;;;;;;;24.85;8.18;;;;;;;5.69;96.30;102186.94;2062636;28;20879;-65
2022/05/15 02:33:58;;;;;;;24.10;7.40;;;;;;;5.70;95.63;102192.25;2063730;28;20046;-65
2022/05/15 02:35:00;;;;;;;21.15;6.53;;;;;;;5.68;95.45;102186.03;2055522;28;20157;-65
2022/05/15 02:36:03;;;;;;;24.00;6.40;;;;;;;5.68;95.89;102186.03;2064050;28;20039;-65
2022/05/15 02:37:06;;;;;;;23.90;6.63;;;;;;;5.66;95.48;102194.84;2071305;28;20050;-65
2022/05/15 02:38:08;;;;;;;23.73;6.15;;;;;;;5.62;96.51;102188.59;2062581;28;40144;-65
2022/05/15 02:39:10;;;;;;;20.50;6.07;;;;;;;5.61;96.44;102185.91;2063314;28;20883;-66
2022/05/15 02:40:14;;;;;;;26.42;6.75;;;;;;;5.59;96.52;102191.19;2063862;28;20101;-65
2022/05/15 02:41:16;;;;;;;19.10;6.45;;;;;;;5.59;95.78;102193.84;2063196;28;20161;-66
2022/05/15 02:42:21;;;;;;;20.80;6.63;;;;;;;5.59;96.24;102187.66;2047385;28;20047;-65
2022/05/15 02:43:22;;;;;;;25.77;6.30;;;;;;;5.59;96.92;102187.66;2055624;28;45916;-65
2022/05/15 02:44:25;;;;;;;23.83;7.72;;;;;;;5.58;96.37;102184.09;2063752;28;20162;-65
2022/05/15 02:45:27;;;;;;;18.42;5.75;;;;;;;5.59;96.89;102187.66;2063611;28;20047;-64
2022/05/15 02:46:29;;;;;;;20.95;6.05;;;;;;;5.57;95.01;102187.63;2071029;28;20050;-65
2022/05/15 02:47:32;;;;;;;17.67;6.43;;;;;;;5.51;95.70;102187.50;2063534;28;20940;-65
2022/05/15 02:51:15;;;;;;;;;;;;;;;5.35;95.54;102189.00;2063727;28;21768;-65
2022/05/15 02:52:16;;;;;;;21.55;6.15;;;;;;;5.35;96.00;102189.88;2056651;28;19918;-65
2022/05/15 02:53:18;;;;;;;22.70;6.20;;;;;;;5.37;95.64;102192.56;2055377;28;20221;-65
2022/05/15 02:54:20;;;;;;;20.10;6.05;;;;;;;5.39;96.95;102195.25;2063383;28;20770;-65
2022/05/15 02:55:24;;;;;;;21.02;5.82;;;;;;;5.40;96.14;102197.94;2070948;28;36831;-65
2022/05/15 02:56:32;;;;;;;21.08;6.90;;;;;;;5.38;96.90;102193.44;2071917;28;20066;-65
2022/05/15 02:57:42;;;;;;;15.93;6.05;;;;;;;5.37;96.31;102194.34;2070903;28;44460;-65
2022/05/15 02:58:46;;;;;;;17.60;6.20;;;;;;;5.36;95.97;102190.75;2063560;28;20050;-65
2022/05/15 02:59:47;;;;;;;20.35;6.97;;;;;;;5.37;96.37;102192.56;2063096;28;20091;-65
2022/05/15 03:00:49;;;;;;;18.95;6.18;;;;;;;5.37;96.92;102195.22;2062412;28;45131;-65
2022/05/15 03:01:51;;;;;;;22.15;7.63;;;;;;;5.37;96.79;102202.31;2062393;28;36862;-64
2022/05/15 03:02:54;;;;;;;23.50;6.60;;;;;;;5.38;97.30;102204.06;2063762;28;20920;-65
2022/05/15 03:04:03;;;;;;;26.67;7.03;;;;;;;5.37;96.01;102197.00;2063295;28;20876;-65
2022/05/15 03:05:08;;;;;;;22.48;6.47;;;;;;;5.37;97.05;102203.19;2055844;28;20036;-66
2022/05/15 03:06:10;;;;;;;18.48;6.53;;;;;;;5.38;96.96;102198.75;2056091;28;20046;-65
2022/05/15 03:07:12;;;;;;;22.45;6.60;;;;;;;5.38;96.20;102197.00;2055391;28;43391;-65
2022/05/15 03:08:14;;;;;;;22.67;6.60;;;;;;;5.38;97.33;102201.41;2055199;28;20170;-65
2022/05/15 03:09:16;;;;;;;22.25;7.20;;;;;;;5.41;96.93;102201.50;2055094;28;20150;-66
2022/05/15 03:10:21;;;;;;;29.73;8.20;;;;;;;5.42;96.52;102201.53;2063432;28;20042;-65
2022/05/15 03:11:23;;;;;;;31.55;8.13;;;;;;;5.46;97.31;102197.16;2063087;28;20043;-66
2022/05/15 03:12:25;;;;;;;22.02;6.72;;;;;;;5.46;97.48;102197.16;2063511;28;23794;-65
2022/05/15 03:13:27;;;;;;;19.80;7.20;;;;;;;5.45;96.86;102192.69;2072126;28;20141;-65
2022/05/15 03:14:28;;;;;;;21.30;6.90;;;;;;;5.43;96.46;102199.75;2071533;28;39862;-65
2022/05/15 03:15:30;;;;;;;25.77;7.75;;;;;;;5.43;96.97;102200.63;2062572;28;43662;-66
2022/05/15 03:16:32;;;;;;;27.35;7.68;;;;;;;5.42;96.80;102206.84;2062376;28;38576;-66
2022/05/15 03:17:34;;;;;;;21.77;7.05;;;;;;;5.41;96.91;102201.50;2071200;28;46175;-65
2022/05/15 03:18:44;;;;;;;21.45;6.78;;;;;;;5.39;97.07;102205.88;2063009;28;26201;-65
2022/05/15 03:19:46;;;;;;;20.45;6.95;;;;;;;5.37;97.11;102199.66;2055249;28;20365;-65
2022/05/15 03:20:50;;;;;;;21.63;6.55;;;;;;;5.35;96.34;102202.28;2056227;28;20039;-65
2022/05/15 03:21:54;;;;;;;19.38;6.30;;;;;;;5.32;96.14;102210.16;2063326;28;20089;-65
2022/05/15 03:22:57;;;;;;;16.73;6.10;;;;;;;5.30;96.62;102204.81;2066264;28;20082;-66
2022/05/15 03:24:02;;;;;;;21.08;6.72;;;;;;;5.27;96.03;102199.44;2063280;28;20059;-65
2022/05/15 03:25:04;;;;;;;22.40;6.78;;;;;;;5.27;96.58;102204.75;2062969;28;45178;-65
2022/05/15 03:26:06;;;;;;;19.67;6.82;;;;;;;5.27;97.27;102198.56;2062617;28;43634;-65
2022/05/15 03:27:07;;;;;;;23.35;6.80;;;;;;;5.26;96.69;102202.09;2062956;28;20051;-65
2022/05/15 03:28:09;;;;;;;22.33;6.47;;;;;;;5.26;97.33;102199.44;2070873;28;37402;-65
2022/05/15 03:29:15;;;;;;;21.17;6.72;;;;;;;5.23;97.28;102200.25;2063787;28;20039;-65
2022/05/15 03:30:17;;;;;;;15.32;5.20;;;;;;;5.26;96.31;102213.59;2063833;28;20935;-65
2022/05/15 03:31:20;;;;;;;20.45;7.10;;;;;;;5.24;97.26;102201.16;2071001;28;20180;-65
2022/05/15 03:32:22;;;;;;;22.55;7.38;;;;;;;5.24;97.29;102212.69;2071308;28;20117;-65
2022/05/15 03:33:24;;;;;;;18.65;6.80;;;;;;;5.25;97.52;102201.19;2070818;28;21455;-65
2022/05/15 03:34:28;;;;;;;23.17;7.25;;;;;;;5.29;97.37;102204.78;2062840;28;20194;-64
2022/05/15 03:35:30;;;;;;;26.58;7.57;;;;;;;5.34;97.71;102205.78;2063447;28;20035;-65
2022/05/15 03:36:33;;;;;;;20.90;6.95;;;;;;;5.35;97.78;102205.81;2071160;28;32097;-65
2022/05/15 03:37:35;;;;;;;23.70;7.28;;;;;;;5.38;97.35;102207.63;2061897;28;43682;-65
2022/05/15 03:38:43;;;;;;;19.17;6.82;;;;;;;5.39;97.79;102201.44;2063132;28;20046;-66
2022/05/15 03:39:46;;;;;;;20.88;7.00;;;;;;;5.38;97.08;102212.94;2071394;28;20922;-65
2022/05/15 03:40:47;;;;;;;20.65;6.63;;;;;;;5.40;96.99;102207.66;2062947;28;20128;-65
2022/05/15 03:41:50;;;;;;;22.80;7.95;;;;;;;5.39;97.53;102206.75;2054341;28;44417;-65
2022/05/15 03:42:51;;;;;;;26.10;7.28;;;;;;;5.43;97.04;102202.41;2063067;28;32067;-65
2022/05/15 03:43:53;;;;;;;19.80;7.15;;;;;;;5.44;97.38;102209.53;2062696;28;29903;-66
2022/05/15 03:44:55;;;;;;;25.80;7.68;;;;;;;5.47;97.78;102209.56;2055445;28;20039;-65
2022/05/15 03:45:59;;;;;;;24.63;7.72;;;;;;;5.51;97.19;102208.75;2063113;28;20130;-65
2022/05/15 03:47:02;;;;;;;18.92;7.05;;;;;;;5.54;96.65;102207.06;2063240;28;31472;-67
2022/05/15 03:48:04;;;;;;;21.75;7.30;;;;;;;5.58;97.67;102207.09;2070962;28;20092;-66
2022/05/15 03:49:08;;;;;;;21.55;7.03;;;;;;;5.62;97.58;102208.97;2071324;28;20038;-67
2022/05/15 03:50:09;;;;;;;20.60;6.35;;;;;;;5.61;97.01;102210.69;2070619;28;30066;-67
2022/05/15 03:51:11;;;;;;;19.38;6.32;;;;;;;5.61;97.59;102213.34;2072021;28;20046;-66
2022/05/15 03:52:14;;;;;;;17.50;6.32;;;;;;;5.61;96.80;102210.69;2070773;28;46850;-66
2022/05/15 03:53:15;;;;;;;19.00;6.78;;;;;;;5.61;96.25;102213.34;2064507;28;20046;-66
2022/05/15 03:54:17;;;;;;;19.13;6.40;;;;;;;5.63;96.79;102214.28;2062820;28;36687;-66
2022/05/15 03:55:19;;;;;;;19.27;6.93;;;;;;;5.65;96.83;102212.56;2071317;28;20042;-67
2022/05/15 03:56:49;;;;;;;24.88;7.22;;;;;;;5.66;96.84;102209.03;2071084;28;20078;-66
2022/05/15 03:57:44;;;;;;;22.27;7.50;;;;;;;5.72;96.72;102214.47;2063118;28;20104;-66
2022/05/15 03:58:46;;;;;;;20.95;7.28;;;;;;;5.78;97.59;102210.09;2062749;28;20955;-66
2022/05/15 03:59:48;;;;;;;21.92;7.45;;;;;;;5.82;97.11;102212.84;2063764;28;20903;-66
2022/05/15 04:00:50;;;;;;;24.35;7.30;;;;;;;5.86;97.40;102206.72;2062240;28;43397;-66
2022/05/15 04:01:51;;;;;;;16.13;6.72;;;;;;;5.91;96.34;102209.47;2062767;28;27821;-66
2022/05/15 04:02:53;;;;;;;15.82;5.88;;;;;;;5.96;96.71;102209.56;2063187;28;20058;-65
2022/05/15 04:03:55;;;;;;;16.00;5.57;;;;;;;6.01;97.06;102219.41;2061467;28;42564;-66
2022/05/15 04:04:57;;;;;;;17.77;5.97;;;;;;;6.08;96.87;102208.00;2053927;28;47514;-66
2022/05/15 04:06:00;;;;;;;15.27;6.38;;;;;;;6.23;96.20;102203.81;2063191;28;21336;-66
2022/05/15 04:07:02;;;;;;;20.65;6.72;;;;;;;6.47;96.76;102213.91;2070260;28;44089;-66
2022/05/15 04:08:04;;;;;;;22.95;7.05;;;;;;;6.76;96.45;102206.31;2062178;28;47168;-66
2022/05/15 04:09:09;;;;;;;16.88;6.30;;;;;;;7.11;96.32;102208.53;2062833;28;23222;-66
2022/05/15 04:10:13;;;;;;;17.20;6.50;;;;;;;7.47;95.66;102206.28;2071730;28;20050;-66
2022/05/15 04:11:15;;;;;;;17.27;6.38;;;;;;;7.83;95.27;102205.72;2070261;28;35696;-67
2022/05/15 04:12:17;;;;;;;18.33;6.28;;;;;;;8.19;94.71;102201.56;2070044;28;41653;-66
2022/05/15 04:13:23;;;;;;;14.52;5.75;;;;;;;8.55;93.69;102206.28;2061995;28;44335;-66
2022/05/15 04:14:25;;;;;;;15.20;5.30;;;;;;;8.94;92.49;102210.03;2063110;28;20047;-66
2022/05/15 04:15:26;;;;;;;18.02;5.38;;;;;;;9.32;90.59;102205.72;2062260;28;43892;-67
2022/05/15 04:16:28;;;;;;;15.68;5.72;;;;;;;9.67;88.74;102210.22;2062338;28;20121;-67
2022/05/15 04:17:30;;;;;;;19.77;5.68;;;;;;;9.94;83.72;102206.69;2053711;28;20047;-67
2022/05/15 04:18:32;;;;;;;13.05;4.70;;;;;;;10.30;82.49;102203.09;2062508;28;23637;-66
2022/05/15 04:19:36;;;;;;;13.48;4.50;;;;;;;10.66;80.68;102198.59;2061758;28;34952;-67
2022/05/15 04:20:38;;;;;;;14.30;4.25;;;;;;;11.04;80.45;102197.56;2063475;28;20039;-66
2022/05/15 04:21:42;;;;;;;12.63;4.15;;;;;;;11.41;78.90;102199.13;2061527;28;43197;-66
2022/05/15 04:22:44;;;;;;;13.43;4.05;;;;;;;11.77;77.05;102200.69;2054353;28;43691;-67
2022/05/15 04:23:46;;;;;;;13.73;4.47;;;;;;;12.00;73.56;102199.63;2063925;28;44396;-66
2022/05/15 04:24:47;;;;;;;9.27;4.00;;;;;;;12.09;71.73;102195.97;2070735;28;45604;-66
2022/05/15 04:25:49;;;;;;;13.73;4.53;;;;;;;12.36;71.36;102200.19;2069429;28;47882;-66
2022/05/15 04:26:51;;;;;;;13.40;4.82;;;;;;;12.53;70.21;102197.34;2071229;28;26937;-67
2022/05/15 04:27:53;;;;;;;12.82;4.10;;;;;;;12.83;71.32;102192.50;2070829;28;44736;-67
2022/05/15 04:28:54;;;;;;;15.88;4.25;;;;;;;13.25;70.14;102193.75;2070944;28;23010;-67
2022/05/15 04:29:56;;;;;;;12.77;4.90;;;;;;;13.53;68.41;102196.06;2062860;28;20897;-67
2022/05/15 04:30:58;;;;;;;12.35;4.20;;;;;;;13.71;66.51;102189.50;2062441;28;44171;-67
2022/05/15 04:32:00;;;;;;;12.52;4.45;;;;;;;13.89;65.23;102185.63;2071457;28;20811;-69
2022/05/15 04:33:03;;;;;;;13.35;4.15;;;;;;;14.19;64.30;102186.03;2071465;28;20050;-67
2022/05/15 04:34:05;;;;;;;10.38;3.40;;;;;;;14.62;65.10;102188.81;2070141;28;35444;-67
2022/05/15 04:35:10;;;;;;;13.13;3.88;;;;;;;14.99;63.83;102192.59;2071160;28;46003;-67
2022/05/15 04:36:13;;;;;;;13.25;4.15;;;;;;;15.08;61.43;102189.69;2070313;28;45476;-67
2022/05/15 04:37:14;;;;;;;11.45;4.05;;;;;;;15.39;61.97;102183.59;2070070;28;44921;-67
2022/05/15 04:38:18;;;;;;;12.85;4.13;;;;;;;15.73;61.72;102186.38;2071096;28;33354;-68
2022/05/15 04:39:22;;;;;;;11.63;4.55;;;;;;;15.66;59.26;102182.06;2070855;28;35920;-68
2022/05/15 04:40:26;;;;;;;13.45;4.30;;;;;;;15.90;59.27;102180.59;2070486;28;40408;-67
2022/05/15 04:41:28;;;;;;;11.85;4.50;;;;;;;15.90;58.98;102182.41;2071782;28;21140;-67
2022/05/15 04:42:31;;;;;;;12.15;4.78;;;;;;;16.10;58.11;102184.63;2070333;28;45537;-67
2022/05/15 04:43:32;;;;;;;12.93;3.92;;;;;;;16.11;59.08;102184.53;2070644;28;43761;-66
2022/05/15 04:44:34;;;;;;;10.45;4.22;;;;;;;16.72;59.02;102176.56;2070722;28;45117;-68
2022/05/15 04:45:36;;;;;;;12.40;4.30;;;;;;;17.18;57.98;102174.34;2070894;28;45173;-67
2022/05/15 04:46:39;;;;;;;8.73;3.75;;;;;;;17.45;56.19;102180.72;2062126;28;29537;-67
2022/05/15 04:47:43;;;;;;;12.32;3.80;;;;;;;17.55;55.08;102178.63;2062709;28;25754;-67
2022/05/15 04:48:45;;;;;;;10.75;4.45;;;;;;;17.88;54.77;102173.91;2069951;28;46038;-66
2022/05/15 04:49:49;;;;;;;14.38;4.28;;;;;;;18.17;54.05;102177.44;2071271;28;20105;-67
2022/05/15 04:50:51;;;;;;;10.50;3.85;;;;;;;18.54;53.08;102173.44;2061678;28;45145;-67
2022/05/15 04:51:57;;;;;;;12.00;4.15;;;;;;;18.73;51.49;102184.47;2054361;28;44667;-65
2022/05/15 04:52:59;;;;;;;11.10;3.83;;;;;;;18.96;51.86;102175.50;2055284;28;43808;-64
2022/05/15 04:54:02;;;;;;;12.73;3.90;;;;;;;19.34;50.37;102175.81;2070918;28;44633;-66
2022/05/15 04:55:04;;;;;;;10.68;4.25;;;;;;;19.70;49.91;102175.25;2073034;28;20104;-66
2022/05/15 04:56:05;;;;;;;11.18;4.30;;;;;;;19.76;49.28;102180.50;2070785;28;44548;-65
2022/05/15 04:57:07;;;;;;;10.70;4.18;;;;;;;19.78;49.95;102175.88;2070753;28;44365;-65
2022/05/15 04:58:09;;;;;;;12.60;4.47;;;;;;;19.69;46.21;102175.34;2071323;28;45628;-66